Terminal Aerodrome Forecast
Issued by NWS

Home | Current Version | Previous Version | Text Only | Print | Product List | Glossary On
Versions: 1 2 3 4 5 6 7 8 9 10 11 12 13 14 15 16 17 18 19 20 21
000
FTUS46 KSEW 210500
TAFBFI
TAF
KBFI 210529Z 2106/2206 16006KT P6SM VCSH BKN035 BKN060
      TEMPO 2106/2110 -SHRA OVC030
     FM211000 16005KT P6SM BKN030
     FM211900 17008KT P6SM BKN040
     FM220000 16010KT P6SM -RA OVC040=

USA.gov is the U.S. government's official web portal to all federal, state and local government web resources and services.